Time;durP1;ratioP1;P1;durP2;ratioP2;P2;SDS_P1;SDS_P2;PMS_P1;PMS_P2;Temp;Humidity;BMP_temperature;BMP_pressure;BME280_temperature;BME280_humidity;BME280_pressure;Samples;Min_cycle;Max_cycle;Signal;HPM_P1;HPM_P2
2023/10/09 00:01:14;;;;;;;6.13;3.13;;;435.80;2124.80;;;;;;5089265;28;20098;-58
2023/10/09 00:03:52;;;;;;;6.43;2.80;;;435.60;2150.40;;;;;;5088788;28;20028;-57
2023/10/09 00:06:37;;;;;;;10.07;2.80;;;435.50;2150.40;;;;;;5089885;28;20099;-58
2023/10/09 00:11:56;;;;;;;6.82;3.20;;;435.40;2150.40;;;;;;5089329;28;20043;-58
2023/10/09 00:14:26;;;;;;;6.28;2.70;;;435.30;2176.00;;;;;;5089232;28;20024;-58
2023/10/09 00:19:37;;;;;;;6.82;2.83;;;435.30;2176.00;;;;;;5089749;28;20073;-58
2023/10/09 00:22:10;;;;;;;8.00;3.13;;;410.50;2227.20;;;;;;5088459;28;20406;-58
2023/10/09 00:24:41;;;;;;;6.45;3.17;;;410.50;2227.20;;;;;;5089198;28;20103;-58
2023/10/09 00:27:19;;;;;;;4.50;3.05;;;410.40;2227.20;;;;;;5060664;28;20622;-58
2023/10/09 00:29:45;;;;;;;4.40;2.42;;;410.30;2227.20;;;;;;5080855;28;20024;-57
2023/10/09 00:34:43;;;;;;;3.40;2.55;;;410.30;2227.20;;;;;;5089110;28;20051;-57
2023/10/09 00:37:16;;;;;;;5.13;2.55;;;410.30;2227.20;;;;;;5082714;28;20029;-58
2023/10/09 00:39:48;;;;;;;5.72;2.58;;;410.20;2227.20;;;;;;5081771;28;20028;-57
2023/10/09 00:42:25;;;;;;;5.70;2.72;;;410.20;2227.20;;;;;;5088634;28;20047;-57
2023/10/09 00:44:51;;;;;;;5.40;2.85;;;410.00;2278.40;;;;;;5088679;28;20028;-58
2023/10/09 00:47:21;;;;;;;6.43;2.33;;;410.00;2252.80;;;;;;5088917;28;20026;-57
2023/10/09 00:50:08;;;;;;;9.80;2.47;;;409.90;2278.40;;;;;;5088352;28;20115;-57
2023/10/09 00:52:43;;;;;;;3.67;2.08;;;409.90;2252.80;;;;;;5088746;28;20538;-58
2023/10/09 00:55:14;;;;;;;3.85;2.08;;;409.90;2252.80;;;;;;5083064;28;20013;-57
2023/10/09 00:57:59;;;;;;;7.95;2.15;;;409.90;2278.40;;;;;;5072254;28;20039;-58
2023/10/09 01:00:52;;;;;;;3.83;2.47;;;409.80;2304.00;;;;;;5088765;28;20100;-58
2023/10/09 01:05:51;;;;;;;5.82;2.63;;;409.70;2304.00;;;;;;5088049;28;20024;-58
2023/10/09 01:08:26;;;;;;;7.68;2.45;;;409.60;2329.60;;;;;;5077526;28;20520;-58
2023/10/09 01:11:08;;;;;;;3.17;2.30;;;409.60;2304.00;;;;;;5087748;28;20055;-58
2023/10/09 01:16:16;;;;;;;3.88;2.17;;;384.80;2329.60;;;;;;5091511;28;20402;-58
2023/10/09 01:18:49;;;;;;;5.03;2.35;;;384.70;2329.60;;;;;;5091849;28;20085;-58
2023/10/09 01:21:15;;;;;;;5.47;2.47;;;384.70;2329.60;;;;;;5083919;28;20040;-57
2023/10/09 01:24:03;;;;;;;6.10;2.67;;;384.60;2329.60;;;;;;5087297;28;20077;-57
2023/10/09 01:26:39;;;;;;;5.97;2.88;;;384.40;2329.60;;;;;;5087492;28;20389;-58
2023/10/09 01:29:10;;;;;;;8.38;2.83;;;384.50;2329.60;;;;;;5081707;28;20460;-57
2023/10/09 01:31:37;;;;;;;4.95;2.22;;;384.40;2329.60;;;;;;5092508;28;20068;-58
2023/10/09 01:34:09;;;;;;;7.20;2.10;;;384.30;2329.60;;;;;;5092194;28;20513;-58
2023/10/09 01:36:39;;;;;;;5.13;1.90;;;384.20;2329.60;;;;;;5092328;28;20028;-57
2023/10/09 01:39:25;;;;;;;3.60;1.98;;;384.20;2329.60;;;;;;5092707;28;20024;-57
2023/10/09 01:41:58;;;;;;;4.32;2.88;;;384.30;2329.60;;;;;;5091836;28;20435;-58
2023/10/09 01:44:29;;;;;;;9.07;2.50;;;384.20;2329.60;;;;;;5092507;28;20031;-59
2023/10/09 01:46:57;;;;;;;6.70;2.08;;;359.30;2329.60;;;;;;5092324;28;20032;-58
2023/10/09 01:49:29;;;;;;;4.25;2.30;;;359.20;2329.60;;;;;;5092216;28;20012;-58
2023/10/09 01:51:58;;;;;;;3.65;2.08;;;359.10;2329.60;;;;;;5066855;28;20036;-58
2023/10/09 01:54:38;;;;;;;5.03;2.22;;;359.10;2329.60;;;;;;5092231;28;20039;-57
2023/10/09 01:57:12;;;;;;;5.82;2.80;;;359.20;2329.60;;;;;;5092061;28;20035;-59
2023/10/09 01:59:44;;;;;;;8.60;2.33;;;359.10;2329.60;;;;;;5091260;28;20028;-57
2023/10/09 02:02:26;;;;;;;4.00;2.10;;;359.20;2329.60;;;;;;5091715;28;20024;-58
2023/10/09 02:07:51;;;;;;;7.07;1.58;;;359.10;2329.60;;;;;;5069934;28;20077;-57
2023/10/09 02:13:06;;;;;;;2.80;1.52;;;359.10;2329.60;;;;;;5077923;28;20097;-58
2023/10/09 02:18:39;;;;;;;6.60;1.65;;;359.00;2329.60;;;;;;5091780;28;20082;-57
2023/10/09 02:23:49;;;;;;;4.47;2.13;;;359.00;2329.60;;;;;;5091117;28;20024;-57
2023/10/09 02:28:52;;;;;;;3.10;2.05;;;358.70;2329.60;;;;;;5090503;28;20043;-58
2023/10/09 02:31:22;;;;;;;;;;;358.70;2329.60;;;;;;5091866;28;20040;-58
2023/10/09 02:33:53;;;;;;;4.45;2.40;;;358.60;2329.60;;;;;;5089483;28;19947;-57
2023/10/09 02:36:18;;;;;;;3.90;1.90;;;358.50;2329.60;;;;;;5074631;28;20461;-58
2023/10/09 02:38:44;;;;;;;4.15;1.65;;;358.50;2329.60;;;;;;5090448;28;20055;-58
2023/10/09 02:43:45;;;;;;;7.07;2.08;;;358.60;2329.60;;;;;;5090812;28;20024;-58
2023/10/09 02:46:18;;;;;;;9.63;2.28;;;358.60;2329.60;;;;;;5090939;28;20385;-57
2023/10/09 02:48:50;;;;;;;2.67;1.70;;;358.60;2329.60;;;;;;5082780;28;20028;-58
2023/10/09 02:53:52;;;;;;;2.92;1.42;;;358.50;2329.60;;;;;;5091010;28;20123;-59
2023/10/09 02:56:23;;;;;;;4.22;1.80;;;358.40;2329.60;;;;;;5086569;28;20099;-57
2023/10/09 02:58:50;;;;;;;3.17;1.60;;;333.60;2329.60;;;;;;5081627;28;20062;-58
2023/10/09 03:01:16;;;;;;;3.80;2.15;;;333.60;2329.60;;;;;;5090820;28;20030;-57
2023/10/09 03:03:46;;;;;;;4.18;1.80;;;333.50;2329.60;;;;;;5090390;28;20107;-58
2023/10/09 03:06:13;;;;;;;3.80;1.58;;;333.40;2329.60;;;;;;5089942;28;20012;-59
2023/10/09 03:08:42;;;;;;;4.50;2.13;;;333.40;2329.60;;;;;;5078788;28;20025;-59
2023/10/09 03:11:13;;;;;;;4.22;2.47;;;333.50;2329.60;;;;;;5063019;28;20081;-59
2023/10/09 03:13:44;;;;;;;3.70;1.90;;;333.60;2329.60;;;;;;5090233;28;20482;-59
2023/10/09 03:16:19;;;;;;;3.40;1.92;;;333.70;2329.60;;;;;;5090124;28;20487;-59
2023/10/09 03:18:53;;;;;;;2.88;1.63;;;333.70;2329.60;;;;;;5090889;28;20047;-59
2023/10/09 03:21:19;;;;;;;3.15;1.92;;;333.60;2329.60;;;;;;5090163;28;20093;-59
2023/10/09 03:23:51;;;;;;;6.70;1.48;;;333.60;2329.60;;;;;;5087410;28;20462;-58
2023/10/09 03:26:18;;;;;;;4.03;2.33;;;333.50;2329.60;;;;;;5070392;28;20382;-59
2023/10/09 03:28:48;;;;;;;4.63;1.50;;;333.60;2329.60;;;;;;5086937;28;20032;-59
2023/10/09 03:31:14;;;;;;;3.40;1.70;;;333.70;2329.60;;;;;;5090229;28;20033;-58
2023/10/09 03:33:40;;;;;;;4.60;2.20;;;333.70;2329.60;;;;;;5089515;28;20016;-58
2023/10/09 03:36:09;;;;;;;3.20;1.83;;;333.70;2329.60;;;;;;5090207;28;20046;-58
2023/10/09 03:38:38;;;;;;;3.40;1.73;;;358.40;2329.60;;;;;;5088778;28;20501;-57
2023/10/09 03:41:05;;;;;;;3.67;2.10;;;358.40;2329.60;;;;;;5088512;28;20493;-58
2023/10/09 03:43:38;;;;;;;3.22;1.80;;;333.70;2329.60;;;;;;5064565;28;20025;-58
2023/10/09 03:46:11;;;;;;;4.45;1.92;;;358.50;2329.60;;;;;;5082514;28;20035;-57
2023/10/09 03:48:37;;;;;;;4.38;2.83;;;333.70;2329.60;;;;;;5089865;28;20020;-58
2023/10/09 03:51:10;;;;;;;4.18;2.92;;;333.70;2329.60;;;;;;5089057;28;20085;-57
2023/10/09 03:53:36;;;;;;;4.50;2.42;;;333.70;2329.60;;;;;;5090018;28;20032;-57
2023/10/09 03:56:07;;;;;;;4.57;2.92;;;333.70;2329.60;;;;;;5088946;28;20016;-56
2023/10/09 03:58:34;;;;;;;4.00;1.98;;;333.60;2329.60;;;;;;5089594;28;20035;-57
2023/10/09 04:01:00;;;;;;;4.63;2.20;;;333.40;2329.60;;;;;;5089219;28;20024;-57
2023/10/09 04:03:26;;;;;;;4.20;2.72;;;333.50;2329.60;;;;;;5089406;28;20107;-57
2023/10/09 04:05:53;;;;;;;4.43;2.53;;;333.40;2329.60;;;;;;5086613;28;20537;-58
2023/10/09 04:08:29;;;;;;;6.75;2.47;;;333.40;2329.60;;;;;;5078528;28;20060;-57
2023/10/09 04:11:04;;;;;;;4.72;2.88;;;333.40;2329.60;;;;;;5089119;28;20115;-58
2023/10/09 04:13:34;;;;;;;4.68;2.60;;;333.40;2329.60;;;;;;5075207;28;20020;-57
2023/10/09 04:16:09;;;;;;;7.50;2.90;;;333.30;2329.60;;;;;;5087452;28;20022;-57
2023/10/09 04:18:38;;;;;;;7.32;2.70;;;333.30;2329.60;;;;;;5085030;28;20123;-56
2023/10/09 04:21:18;;;;;;;5.03;2.38;;;333.30;2329.60;;;;;;5063754;28;20535;-57
2023/10/09 04:24:09;;;;;;;6.50;2.65;;;333.30;2329.60;;;;;;5088347;28;20058;-57
2023/10/09 04:26:35;;;;;;;6.75;2.28;;;333.30;2329.60;;;;;;5089416;28;20020;-58
2023/10/09 04:29:02;;;;;;;4.63;2.70;;;333.20;2329.60;;;;;;5087584;28;20046;-56
2023/10/09 04:31:31;;;;;;;5.75;2.38;;;333.20;2329.60;;;;;;5078349;28;20036;-56
2023/10/09 04:34:48;;;;;;;6.55;2.50;;;333.20;2329.60;;;;;;5070347;28;20024;-56
2023/10/09 04:36:53;;;;;;;6.57;2.60;;;333.20;2329.60;;;;;;5083106;28;20402;-57
2023/10/09 04:50:15;;;;;;;5.43;2.10;;;332.80;2329.60;;;;;;5026318;28;20088;-57
2023/10/09 05:03:42;;;;;;;5.93;3.20;;;332.80;2329.60;;;;;;5025924;28;20422;-57
2023/10/09 05:05:58;;;;;;;4.65;2.70;;;332.90;2329.60;;;;;;5020913;28;20561;-58
2023/10/09 05:16:18;;;;;;;6.03;4.10;;;333.10;2329.60;;;;;;5025341;28;20407;-58
2023/10/09 05:18:59;;;;;;;8.73;3.65;;;333.10;2329.60;;;;;;5022743;28;20029;-58
2023/10/09 05:21:44;;;;;;;6.95;4.18;;;333.00;2329.60;;;;;;5058537;28;20054;-58
2023/10/09 05:32:04;;;;;;;7.32;4.18;;;333.30;2329.60;;;;;;5057940;28;20039;-58
2023/10/09 05:34:34;;;;;;;6.07;4.38;;;333.40;2329.60;;;;;;5084765;28;20062;-58
2023/10/09 05:37:17;;;;;;;7.10;3.35;;;333.40;2329.60;;;;;;5088441;28;20024;-56
2023/10/09 05:40:03;;;;;;;;;;;333.20;2329.60;;;;;;5088260;28;20095;-57
2023/10/09 05:47:56;;;;;;;4.82;3.67;;;333.40;2329.60;;;;;;5062448;28;20060;-58
2023/10/09 06:11:38;;;;;;;8.40;4.72;;;410.00;2355.20;;;;;;5091433;28;20723;-58
2023/10/09 06:16:41;;;;;;;23.45;5.80;;;436.10;2355.20;;;;;;5091999;28;20035;-58
2023/10/09 06:24:18;;;;;;;6.23;4.50;;;512.90;2176.00;;;;;;5065618;28;20063;-58
2023/10/09 06:32:34;;;;;;;7.78;5.35;;;588.90;1971.20;;;;;;5077581;28;20428;-59
2023/10/09 06:43:36;;;;;;;8.15;5.13;;;614.70;1792.00;;;;;;5090399;28;20039;-58
2023/10/09 06:46:43;;;;;;;10.63;5.45;;;640.10;1766.40;;;;;;5090771;28;20074;-59
2023/10/09 06:48:45;;;;;;;8.85;5.97;;;640.80;1715.20;;;;;;5088631;28;20047;-59
2023/10/09 06:59:04;;;;;;;10.00;5.40;;;589.00;1843.20;;;;;;5090933;28;20534;-59
2023/10/09 07:01:43;;;;;;;8.77;6.22;;;563.60;1894.40;;;;;;5090959;28;20039;-59
2023/10/09 07:04:19;;;;;;;13.27;6.25;;;564.10;1868.80;;;;;;5090821;28;20495;-59
2023/10/09 07:06:51;;;;;;;11.32;5.65;;;564.10;1868.80;;;;;;5091251;28;20474;-58
2023/10/09 07:09:20;;;;;;;14.13;6.50;;;589.20;1817.60;;;;;;5077517;28;20046;-58
2023/10/09 07:15:01;;;;;;;8.05;6.25;;;589.70;1792.00;;;;;;5090486;28;20552;-58
2023/10/09 07:22:52;;;;;;;8.95;7.25;;;640.90;1664.00;;;;;;5066028;28;20370;-60
2023/10/09 07:25:40;;;;;;;13.50;9.48;;;666.20;1689.60;;;;;;5072335;28;20080;-60
2023/10/09 07:28:18;;;;;;;15.63;10.30;;;691.40;1612.80;;;;;;5090776;28;20103;-59
2023/10/09 07:30:46;;;;;;;18.83;12.10;;;691.90;1587.20;;;;;;5064309;28;20100;-59
2023/10/09 07:38:14;;;;;;;28.33;18.13;;;665.70;1664.00;;;;;;5090278;28;20039;-60
2023/10/09 07:40:56;;;;;;;22.98;12.52;;;691.20;1587.20;;;;;;5090078;28;20061;-60
2023/10/09 07:43:35;;;;;;;20.05;13.88;;;665.70;1638.40;;;;;;5090090;28;20012;-59
2023/10/09 07:48:52;;;;;;;55.17;32.22;;;691.80;1561.60;;;;;;5090365;28;20027;-60
2023/10/09 07:51:31;;;;;;;40.30;27.52;;;691.90;1536.00;;;;;;5077678;28;20020;-59
2023/10/09 07:54:06;;;;;;;39.90;24.17;;;691.30;1587.20;;;;;;5079550;28;20136;-59
2023/10/09 07:56:41;;;;;;;49.55;29.80;;;717.10;1561.60;;;;;;5088980;28;20020;-60
2023/10/09 07:59:11;;;;;;;35.85;22.20;;;717.40;1510.40;;;;;;5089735;28;20028;-60
2023/10/09 08:01:54;;;;;;;31.17;23.23;;;717.10;1536.00;;;;;;5089963;28;20031;-59
2023/10/09 08:04:37;;;;;;;42.25;28.33;;;716.80;1536.00;;;;;;5089842;28;20048;-60
2023/10/09 08:18:03;;;;;;;18.85;14.00;;;717.30;1510.40;;;;;;5067139;28;20119;-60
2023/10/09 08:23:28;;;;;;;20.50;13.02;;;743.20;1459.20;;;;;;5066659;28;20044;-60
2023/10/09 08:26:14;;;;;;;16.20;11.52;;;742.60;1484.80;;;;;;5066325;28;20112;-60
2023/10/09 08:28:45;;;;;;;28.02;19.77;;;768.60;1408.00;;;;;;5056661;28;20031;-60
2023/10/09 08:31:19;;;;;;;33.33;20.17;;;768.90;1408.00;;;;;;5051688;28;20110;-59
2023/10/09 08:33:56;;;;;;;29.38;18.23;;;768.60;1408.00;;;;;;5066695;28;20175;-60
2023/10/09 08:36:28;;;;;;;23.95;16.65;;;743.10;1459.20;;;;;;5066424;28;20032;-59
2023/10/09 08:38:58;;;;;;;21.83;14.75;;;743.30;1433.60;;;;;;5065857;28;20024;-60
2023/10/09 08:41:25;;;;;;;18.52;13.95;;;768.40;1433.60;;;;;;5066419;28;20029;-59
2023/10/09 08:43:54;;;;;;;25.00;15.25;;;743.10;1459.20;;;;;;5064882;28;20107;-60
2023/10/09 08:46:26;;;;;;;23.80;14.25;;;768.00;1433.60;;;;;;5066107;28;20032;-60
2023/10/09 08:48:58;;;;;;;23.10;15.55;;;743.30;1459.20;;;;;;5088352;28;20036;-59
2023/10/09 08:51:26;;;;;;;21.80;15.37;;;793.60;1408.00;;;;;;5089129;28;20036;-59
2023/10/09 08:53:52;;;;;;;19.30;13.75;;;742.70;1484.80;;;;;;5089242;28;20065;-60
2023/10/09 08:56:22;;;;;;;23.50;13.40;;;768.40;1433.60;;;;;;5089302;28;20024;-60
2023/10/09 08:58:56;;;;;;;21.65;15.88;;;743.30;1459.20;;;;;;5088360;28;20032;-60
2023/10/09 09:01:24;;;;;;;21.70;14.52;;;768.00;1459.20;;;;;;5070220;28;20471;-59
2023/10/09 09:03:51;;;;;;;20.17;13.32;;;742.70;1484.80;;;;;;5087946;28;20028;-60
2023/10/09 09:06:20;;;;;;;19.60;12.25;;;716.90;1536.00;;;;;;5086307;28;20028;-59
2023/10/09 09:08:46;;;;;;;17.58;10.45;;;691.30;1561.60;;;;;;5087173;28;20028;-59
2023/10/09 09:11:16;;;;;;;23.27;11.75;;;666.00;1612.80;;;;;;5085586;28;20017;-59
2023/10/09 09:13:50;;;;;;;17.90;9.63;;;640.20;1664.00;;;;;;5084065;28;20028;-58
2023/10/09 09:16:29;;;;;;;18.00;10.05;;;614.80;1715.20;;;;;;5084516;28;20059;-58
2023/10/09 09:22:11;;;;;;;14.80;6.85;;;615.00;1715.20;;;;;;5033241;28;20053;-58
2023/10/09 09:24:37;;;;;;;19.70;10.35;;;;;;;;;;5023724;28;20029;-59
2023/10/09 09:27:12;;;;;;;14.70;8.13;;;614.50;1766.40;;;;;;5040575;28;20037;-59
2023/10/09 09:29:38;;;;;;;12.77;6.50;;;564.10;1843.20;;;;;;5043940;28;20041;-58
2023/10/09 09:32:18;;;;;;;19.52;7.72;;;588.80;1843.20;;;;;;5033254;28;20033;-59
2023/10/09 09:34:49;;;;;;;13.00;6.05;;;564.00;1843.20;;;;;;5040942;28;20025;-59
2023/10/09 09:40:43;;;;;;;11.45;5.88;;;588.80;1868.80;;;;;;5030805;28;20049;-59
2023/10/09 09:43:09;;;;;;;12.53;7.30;;;564.00;1868.80;;;;;;5028787;28;20034;-58
2023/10/09 09:45:36;;;;;;;8.70;5.43;;;564.10;1894.40;;;;;;5030495;28;20073;-59
2023/10/09 09:48:15;;;;;;;11.63;5.47;;;563.90;1894.40;;;;;;5040885;28;20036;-58
2023/10/09 09:50:44;;;;;;;7.13;4.65;;;588.80;1868.80;;;;;;5038027;28;20079;-58
2023/10/09 09:53:17;;;;;;;11.13;5.75;;;564.10;1894.40;;;;;;5039444;28;20141;-58
2023/10/09 09:55:57;;;;;;;;;;;563.70;1920.00;;;;;;5040426;28;20471;-57
2023/10/09 09:58:32;;;;;;;8.20;5.50;;;563.70;1945.60;;;;;;5056704;28;20685;-58
2023/10/09 10:01:24;;;;;;;11.82;5.90;;;563.60;1945.60;;;;;;5060309;28;20035;-58
2023/10/09 10:03:57;;;;;;;8.02;6.18;;;563.40;1971.20;;;;;;5067038;28;20024;-57
2023/10/09 10:06:28;;;;;;;16.42;7.07;;;563.30;1971.20;;;;;;5066992;28;20039;-58
2023/10/09 10:08:54;;;;;;;10.27;6.40;;;563.50;1971.20;;;;;;5072461;28;20020;-57
2023/10/09 10:11:45;;;;;;;10.88;6.05;;;563.70;1945.60;;;;;;5074138;28;20024;-58
2023/10/09 10:14:31;;;;;;;11.45;6.57;;;563.50;1971.20;;;;;;5071816;28;20071;-59
2023/10/09 10:17:16;;;;;;;14.05;7.70;;;563.70;1945.60;;;;;;5084172;28;20036;-58
2023/10/09 10:22:47;;;;;;;12.35;5.55;;;563.90;1945.60;;;;;;5071016;28;20051;-58
2023/10/09 10:25:35;;;;;;;9.10;5.22;;;564.10;1945.60;;;;;;5072298;28;20081;-57
2023/10/09 10:28:17;;;;;;;10.52;5.32;;;564.00;1945.60;;;;;;5081970;28;20072;-58
2023/10/09 10:30:46;;;;;;;8.70;5.72;;;588.90;1920.00;;;;;;5078448;28;20079;-58
2023/10/09 10:33:15;;;;;;;9.35;5.55;;;588.80;1920.00;;;;;;5085142;28;20028;-58
2023/10/09 10:38:42;;;;;;;8.98;5.15;;;563.90;1920.00;;;;;;5084505;28;20086;-58
2023/10/09 10:41:12;;;;;;;9.43;5.18;;;564.10;1894.40;;;;;;5008460;28;20044;-57
2023/10/09 10:46:15;;;;;;;8.95;4.53;;;588.90;1868.80;;;;;;5008767;28;20121;-58
2023/10/09 10:48:47;;;;;;;7.15;4.25;;;589.10;1868.80;;;;;;5008219;28;20054;-58
2023/10/09 10:51:14;;;;;;;7.00;4.75;;;588.90;1868.80;;;;;;5006171;28;20045;-57
2023/10/09 10:53:59;;;;;;;8.63;4.78;;;564.10;1894.40;;;;;;5008533;28;20025;-59
2023/10/09 10:56:37;;;;;;;6.25;4.05;;;588.80;1868.80;;;;;;5008622;28;20523;-57
2023/10/09 11:12:39;;;;;;;16.25;4.93;;;589.20;1868.80;;;;;;4949410;29;20031;-58
2023/10/09 11:18:16;;;;;;;8.02;3.85;;;589.10;1843.20;;;;;;4965521;28;20037;-57
2023/10/09 11:20:56;;;;;;;6.93;4.80;;;589.20;1843.20;;;;;;5001539;28;20117;-58
2023/10/09 11:23:36;;;;;;;6.65;3.25;;;589.00;1843.20;;;;;;5001418;28;20057;-59
2023/10/09 11:29:52;;;;;;;8.02;3.92;;;589.10;1843.20;;;;;;5001780;28;20526;-59
2023/10/09 11:32:18;;;;;;;10.05;5.18;;;589.50;1843.20;;;;;;4992829;28;20041;-58
2023/10/09 11:34:54;;;;;;;7.28;4.63;;;589.60;1843.20;;;;;;5005895;28;20034;-58
2023/10/09 11:40:00;;;;;;;7.50;3.95;;;;;;;;;;5020359;28;20526;-57
2023/10/09 11:45:29;;;;;;;7.55;4.43;;;614.40;1817.60;;;;;;5071238;28;20085;-59
2023/10/09 11:47:57;;;;;;;5.55;3.55;;;614.50;1817.60;;;;;;5076929;28;20024;-58
2023/10/09 11:53:39;;;;;;;5.60;4.20;;;614.40;1817.60;;;;;;5089827;28;20549;-59
2023/10/09 11:56:05;;;;;;;8.45;5.25;;;614.50;1817.60;;;;;;5089559;28;20019;-58
2023/10/09 11:58:31;;;;;;;7.10;4.88;;;614.50;1817.60;;;;;;5089195;28;20069;-59
2023/10/09 12:01:05;;;;;;;12.15;6.97;;;614.50;1817.60;;;;;;5089458;28;20064;-58
2023/10/09 12:03:32;;;;;;;10.43;7.05;;;614.50;1817.60;;;;;;5089877;28;20458;-58
2023/10/09 12:06:04;;;;;;;8.82;6.55;;;614.70;1817.60;;;;;;5089517;28;20024;-58
2023/10/09 12:08:30;;;;;;;7.07;4.97;;;614.80;1817.60;;;;;;5089448;28;20424;-59
2023/10/09 12:10:56;;;;;;;9.57;5.45;;;614.80;1817.60;;;;;;5088965;28;20095;-59
2023/10/09 12:13:23;;;;;;;8.38;4.97;;;614.80;1792.00;;;;;;5089655;28;20040;-59
2023/10/09 12:15:53;;;;;;;5.47;3.85;;;614.50;1843.20;;;;;;5079704;28;20378;-60
2023/10/09 12:18:23;;;;;;;8.20;4.90;;;614.50;1817.60;;;;;;5078217;28;20458;-59
2023/10/09 12:20:55;;;;;;;6.40;4.43;;;614.70;1817.60;;;;;;5089307;28;20089;-60
2023/10/09 12:23:22;;;;;;;11.70;5.28;;;614.90;1792.00;;;;;;5089249;28;20119;-58
2023/10/09 12:25:56;;;;;;;5.95;4.25;;;614.80;1817.60;;;;;;5088923;28;20016;-59
2023/10/09 12:28:22;;;;;;;13.85;5.05;;;614.80;1792.00;;;;;;5089161;28;20496;-59
2023/10/09 12:30:52;;;;;;;11.95;6.00;;;614.80;1817.60;;;;;;5089552;28;20095;-59
2023/10/09 12:33:19;;;;;;;9.23;5.50;;;614.80;1817.60;;;;;;5089210;28;20055;-58
2023/10/09 12:35:47;;;;;;;8.13;4.07;;;614.80;1817.60;;;;;;5089204;28;20031;-58
2023/10/09 12:38:13;;;;;;;7.43;4.10;;;614.90;1817.60;;;;;;5089061;28;20619;-59
2023/10/09 12:40:41;;;;;;;7.95;5.55;;;615.00;1817.60;;;;;;5088941;28;20419;-59
2023/10/09 12:43:15;;;;;;;12.10;5.32;;;614.90;1817.60;;;;;;5088447;28;20362;-58
2023/10/09 12:45:42;;;;;;;8.88;5.53;;;614.80;1817.60;;;;;;5075242;28;20056;-60
2023/10/09 12:48:09;;;;;;;9.90;5.72;;;614.70;1843.20;;;;;;5078066;28;20123;-60
2023/10/09 12:50:41;;;;;;;9.02;4.55;;;614.40;1843.20;;;;;;5088581;28;20024;-59
2023/10/09 12:53:08;;;;;;;9.60;5.38;;;614.50;1868.80;;;;;;5084406;28;20044;-59
2023/10/09 12:55:47;;;;;;;7.80;5.03;;;614.60;1868.80;;;;;;5079712;28;20069;-58
2023/10/09 12:58:15;;;;;;;7.65;5.07;;;614.80;1843.20;;;;;;5088542;28;20035;-60
2023/10/09 13:00:48;;;;;;;10.88;4.95;;;614.80;1843.20;;;;;;5088651;28;20127;-58
2023/10/09 13:03:17;;;;;;;9.77;4.75;;;614.70;1843.20;;;;;;5063061;28;20044;-59
2023/10/09 13:05:58;;;;;;;9.40;6.13;;;614.70;1868.80;;;;;;5087980;28;20487;-58
2023/10/09 13:08:31;;;;;;;13.23;6.13;;;614.60;1868.80;;;;;;5088985;28;20050;-59
2023/10/09 13:11:11;;;;;;;11.02;6.18;;;614.80;1868.80;;;;;;5088500;28;20462;-59
2023/10/09 13:13:42;;;;;;;8.98;6.05;;;614.70;1868.80;;;;;;5088631;28;20036;-58
2023/10/09 13:16:12;;;;;;;15.15;5.90;;;614.70;1868.80;;;;;;5082470;28;20024;-58
2023/10/09 13:18:39;;;;;;;10.82;5.43;;;614.70;1868.80;;;;;;5059667;28;20108;-58
2023/10/09 13:21:05;;;;;;;10.13;5.22;;;614.70;1894.40;;;;;;5076602;28;20097;-59
2023/10/09 13:23:39;;;;;;;6.53;4.63;;;614.60;1894.40;;;;;;5087860;28;20020;-59
2023/10/09 13:26:23;;;;;;;7.20;5.30;;;614.80;1894.40;;;;;;5088062;28;20107;-58
2023/10/09 13:28:54;;;;;;;8.25;5.22;;;614.90;1868.80;;;;;;5088720;28;20478;-58
2023/10/09 13:31:21;;;;;;;8.15;4.63;;;614.80;1894.40;;;;;;5088298;28;20465;-59
2023/10/09 13:33:48;;;;;;;10.27;5.07;;;614.80;1894.40;;;;;;5088589;28;20115;-59
2023/10/09 13:36:19;;;;;;;8.95;5.28;;;614.80;1920.00;;;;;;5076436;28;20020;-58
2023/10/09 13:38:46;;;;;;;9.07;6.32;;;614.80;1920.00;;;;;;5087589;28;20028;-64
2023/10/09 13:41:17;;;;;;;8.88;6.43;;;614.80;1920.00;;;;;;5088157;28;20485;-64
2023/10/09 13:43:43;;;;;;;16.10;7.15;;;614.80;1920.00;;;;;;5088158;28;20024;-64
2023/10/09 13:46:12;;;;;;;7.95;5.63;;;614.80;1920.00;;;;;;5083840;28;20082;-63
2023/10/09 13:48:43;;;;;;;9.63;5.45;;;614.80;1920.00;;;;;;5065325;28;20024;-63
2023/10/09 13:51:19;;;;;;;9.77;5.38;;;614.80;1945.60;;;;;;5068131;28;20439;-62
2023/10/09 13:53:48;;;;;;;10.20;5.30;;;614.80;1945.60;;;;;;5071028;28;20109;-63
2023/10/09 13:56:27;;;;;;;8.70;5.72;;;614.80;1945.60;;;;;;5061256;28;20077;-62
2023/10/09 13:58:54;;;;;;;11.35;5.47;;;614.80;1945.60;;;;;;5079822;28;20028;-62
2023/10/09 14:01:26;;;;;;;9.32;5.72;;;614.80;1945.60;;;;;;5088290;28;20031;-62
2023/10/09 14:03:56;;;;;;;11.43;5.20;;;614.80;1945.60;;;;;;5074400;28;20028;-67
2023/10/09 14:06:32;;;;;;;8.00;4.95;;;614.80;1920.00;;;;;;5066239;28;20074;-62
2023/10/09 14:09:05;;;;;;;14.77;5.05;;;614.90;1945.60;;;;;;5079371;28;20399;-63
2023/10/09 14:11:39;;;;;;;8.10;4.70;;;614.80;1945.60;;;;;;5062719;28;20100;-62
2023/10/09 14:14:09;;;;;;;9.30;5.22;;;614.80;1945.60;;;;;;5069124;28;20433;-65
2023/10/09 14:16:42;;;;;;;8.25;4.85;;;614.80;1971.20;;;;;;5071025;28;20024;-62
2023/10/09 14:19:12;;;;;;;9.45;5.57;;;614.80;1945.60;;;;;;5069973;28;20040;-62
2023/10/09 14:21:40;;;;;;;7.07;5.15;;;614.70;1971.20;;;;;;5077474;28;20044;-65
2023/10/09 14:24:16;;;;;;;7.57;4.57;;;614.70;1971.20;;;;;;5069938;28;20378;-62
2023/10/09 14:26:45;;;;;;;9.27;5.15;;;614.50;1996.80;;;;;;5063947;28;20674;-66
2023/10/09 14:29:16;;;;;;;7.05;5.13;;;614.50;1996.80;;;;;;5069297;28;20051;-63
2023/10/09 14:31:59;;;;;;;9.68;4.78;;;614.50;1996.80;;;;;;5079331;28;20517;-65
2023/10/09 14:34:29;;;;;;;;;;;614.50;1996.80;;;;;;5076978;28;20028;-62
2023/10/09 14:36:55;;;;;;;8.15;6.28;;;614.50;1996.80;;;;;;5077255;28;19916;-62
2023/10/09 14:39:26;;;;;;;8.32;4.70;;;589.70;2022.40;;;;;;5069533;28;20429;-63
2023/10/09 14:41:54;;;;;;;9.85;5.53;;;589.60;2022.40;;;;;;5070801;28;20081;-61
2023/10/09 14:44:20;;;;;;;11.77;5.32;;;589.50;2022.40;;;;;;5076934;28;20107;-65
2023/10/09 14:46:49;;;;;;;8.40;4.85;;;589.50;2048.00;;;;;;5084604;28;20072;-63
2023/10/09 14:49:14;;;;;;;14.18;4.60;;;589.50;2048.00;;;;;;5077944;28;20031;-61
2023/10/09 14:51:44;;;;;;;6.45;4.63;;;589.50;2048.00;;;;;;5073395;28;20380;-61
2023/10/09 14:54:10;;;;;;;9.77;4.88;;;589.40;2048.00;;;;;;5077054;28;20430;-63
2023/10/09 14:56:37;;;;;;;13.00;6.00;;;589.40;2048.00;;;;;;5068678;28;20077;-65
2023/10/09 14:59:04;;;;;;;9.18;5.32;;;589.50;2022.40;;;;;;5079539;28;20042;-64
2023/10/09 15:01:31;;;;;;;7.75;5.03;;;589.60;2022.40;;;;;;5084570;28;20058;-66
2023/10/09 15:04:00;;;;;;;11.35;5.65;;;589.60;2048.00;;;;;;5073423;28;20048;-65
2023/10/09 15:06:28;;;;;;;7.95;4.55;;;589.60;2048.00;;;;;;5071076;28;20497;-61
2023/10/09 15:08:58;;;;;;;8.65;5.00;;;589.60;2022.40;;;;;;5071003;28;20117;-66
2023/10/09 15:11:25;;;;;;;8.02;4.88;;;589.50;2073.60;;;;;;5077305;28;20040;-66
2023/10/09 15:14:00;;;;;;;7.68;5.13;;;589.50;2099.20;;;;;;5073427;28;20036;-62
2023/10/09 15:16:28;;;;;;;14.60;5.32;;;589.50;2176.00;;;;;;5068471;28;20085;-63
2023/10/09 15:18:56;;;;;;;8.32;5.75;;;589.40;2150.40;;;;;;5070199;28;20028;-64
2023/10/09 15:21:26;;;;;;;9.95;6.35;;;589.40;2201.60;;;;;;5078895;28;20056;-63
2023/10/09 15:23:55;;;;;;;9.93;6.28;;;589.20;2252.80;;;;;;5072580;28;20028;-65
2023/10/09 15:26:23;;;;;;;10.63;6.82;;;589.10;2252.80;;;;;;5075301;28;20028;-64
2023/10/09 15:28:50;;;;;;;12.35;6.43;;;589.00;2278.40;;;;;;5071739;28;20021;-65
2023/10/09 15:31:16;;;;;;;12.63;7.70;;;588.90;2278.40;;;;;;5070005;28;20020;-64
2023/10/09 15:33:43;;;;;;;13.43;6.93;;;588.80;2304.00;;;;;;5080511;28;20374;-63
2023/10/09 15:36:13;;;;;;;11.02;6.88;;;564.10;2304.00;;;;;;5066679;28;20026;-64
2023/10/09 15:38:39;;;;;;;14.30;6.47;;;564.10;2304.00;;;;;;5068666;28;20029;-63
2023/10/09 15:41:06;;;;;;;7.53;5.28;;;563.90;2329.60;;;;;;5070279;28;20409;-64
2023/10/09 15:43:33;;;;;;;17.58;6.65;;;563.80;2329.60;;;;;;5076276;28;20028;-68
2023/10/09 15:45:59;;;;;;;11.35;6.15;;;563.70;2329.60;;;;;;5080325;28;20024;-68
2023/10/09 15:48:25;;;;;;;9.77;6.18;;;563.60;2329.60;;;;;;5069919;28;20055;-66
2023/10/09 15:50:51;;;;;;;9.27;5.75;;;563.50;2329.60;;;;;;5079437;28;20429;-69
2023/10/09 15:53:18;;;;;;;10.57;6.30;;;563.30;2355.20;;;;;;5088560;28;20035;-65
2023/10/09 15:55:44;;;;;;;10.52;6.85;;;563.30;2355.20;;;;;;5087691;28;20024;-68
2023/10/09 15:58:10;;;;;;;14.07;6.82;;;538.50;2380.80;;;;;;5084950;28;20477;-67